createdAt,value
2022-12-08T00:00:27.200Z,5.90
2022-12-08T00:02:54.060Z,5.90
2022-12-08T00:05:39.947Z,5.89
2022-12-08T00:08:29.653Z,5.86
2022-12-08T00:10:56.402Z,5.87
2022-12-08T00:13:23.199Z,5.87
2022-12-08T00:15:49.873Z,5.87
2022-12-08T00:18:16.791Z,5.88
2022-12-08T00:20:43.552Z,5.89
2022-12-08T00:23:10.216Z,5.89
2022-12-08T00:25:37.448Z,5.92
2022-12-08T00:28:04.358Z,5.93
2022-12-08T00:30:31.073Z,5.92
2022-12-08T00:32:57.815Z,5.90
2022-12-08T00:35:24.766Z,5.89
2022-12-08T00:37:57.517Z,5.86
2022-12-08T00:40:27.910Z,5.83
2022-12-08T00:42:56.122Z,5.84
2022-12-08T00:45:24.027Z,5.84
2022-12-08T00:47:50.720Z,5.86
2022-12-08T00:50:17.493Z,5.86
2022-12-08T00:52:44.235Z,5.85
2022-12-08T00:55:11.010Z,5.83
2022-12-08T00:57:37.749Z,5.83
2022-12-08T01:00:05.552Z,5.84
2022-12-08T01:02:34.428Z,5.85
2022-12-08T01:05:01.138Z,5.86
2022-12-08T01:07:29.629Z,5.83
2022-12-08T01:09:57.750Z,5.79
2022-12-08T01:12:24.664Z,5.77
2022-12-08T01:14:51.453Z,5.80
2022-12-08T01:17:18.276Z,5.79
2022-12-08T01:19:45.040Z,5.81
2022-12-08T01:22:11.829Z,5.84
2022-12-08T01:24:38.894Z,5.87
2022-12-08T01:27:05.659Z,5.89
2022-12-08T01:29:32.444Z,5.91
2022-12-08T01:31:59.101Z,5.94
2022-12-08T01:34:25.828Z,5.97
2022-12-08T01:36:52.602Z,6.00
2022-12-08T01:39:20.172Z,6.01
2022-12-08T01:41:47.959Z,6.01
2022-12-08T01:44:14.676Z,6.05
2022-12-08T01:46:43.732Z,6.07
2022-12-08T01:49:33.136Z,6.08
2022-12-08T01:52:13.559Z,6.08
2022-12-08T01:54:48.877Z,6.11
2022-12-08T01:57:25.042Z,6.12
2022-12-08T01:59:57.808Z,6.12
2022-12-08T02:02:29.635Z,6.11
2022-12-08T02:04:56.539Z,6.13
2022-12-08T02:07:24.397Z,6.11
2022-12-08T02:09:53.255Z,6.10
2022-12-08T02:12:19.996Z,6.13
2022-12-08T02:15:07.165Z,6.12
2022-12-08T02:18:17.329Z,6.04
2022-12-08T02:20:47.139Z,6.07
2022-12-08T02:23:55.451Z,6.11
2022-12-08T02:26:27.795Z,6.07
2022-12-08T02:29:32.004Z,5.98
2022-12-08T02:32:17.295Z,5.75
2022-12-08T02:35:03.022Z,5.94
2022-12-08T02:37:37.260Z,5.94
2022-12-08T02:40:31.060Z,5.92
2022-12-08T02:43:19.430Z,5.85
2022-12-08T02:45:55.792Z,5.91
2022-12-08T02:48:22.616Z,5.94
2022-12-08T02:50:49.355Z,5.91
2022-12-08T02:55:44.489Z,5.95
2022-12-08T02:58:35.513Z,5.92
2022-12-08T03:01:20.288Z,5.84
2022-12-08T03:04:15.218Z,5.84
2022-12-08T03:06:59.686Z,5.86
2022-12-08T03:09:38.430Z,5.91
2022-12-08T03:12:19.161Z,5.89
2022-12-08T03:14:50.440Z,5.95
2022-12-08T03:17:19.875Z,5.94
2022-12-08T03:19:48.214Z,5.90
2022-12-08T03:22:18.689Z,5.86
2022-12-08T03:24:47.615Z,5.85
2022-12-08T03:27:23.653Z,5.79
2022-12-08T03:29:54.616Z,5.78
2022-12-08T03:32:49.723Z,5.74
2022-12-08T03:35:21.260Z,5.74
2022-12-08T03:37:48.088Z,5.75
2022-12-08T03:40:19.434Z,5.70
2022-12-08T03:42:46.347Z,5.72
2022-12-08T03:45:13.199Z,5.71
2022-12-08T03:47:39.965Z,5.71
2022-12-08T03:50:07.508Z,5.73
2022-12-08T03:52:34.333Z,5.74
2022-12-08T03:55:01.045Z,5.72
2022-12-08T03:57:27.786Z,5.73
2022-12-08T03:59:54.519Z,5.73
2022-12-08T04:02:21.447Z,5.71
2022-12-08T04:04:48.759Z,5.75
2022-12-08T04:07:15.499Z,5.75
2022-12-08T04:09:42.382Z,5.78
2022-12-08T04:12:09.551Z,5.70
2022-12-08T04:14:36.425Z,5.67
2022-12-08T04:17:03.373Z,5.64
2022-12-08T04:19:30.238Z,5.60
2022-12-08T04:21:57.000Z,5.57
2022-12-08T04:24:23.799Z,5.55
2022-12-08T04:26:50.727Z,5.53
2022-12-08T04:29:17.809Z,5.57
2022-12-08T04:31:44.665Z,5.62
2022-12-08T04:34:11.505Z,5.65
2022-12-08T04:36:38.367Z,5.63
2022-12-08T04:39:05.223Z,5.62
2022-12-08T04:41:32.156Z,5.62
2022-12-08T04:43:58.896Z,5.64
2022-12-08T04:46:25.629Z,5.65
2022-12-08T04:48:52.626Z,5.61
2022-12-08T04:51:20.814Z,5.60
2022-12-08T04:53:48.334Z,5.61
2022-12-08T04:56:16.679Z,5.61
2022-12-08T04:58:43.638Z,5.62
2022-12-08T05:01:11.103Z,5.59
2022-12-08T05:03:38.055Z,5.57
2022-12-08T05:06:05.760Z,5.54
2022-12-08T05:08:33.593Z,5.50
2022-12-08T05:11:08.394Z,5.49
2022-12-08T05:13:35.259Z,5.54
2022-12-08T05:16:20.217Z,5.45
2022-12-08T05:18:46.978Z,5.48
2022-12-08T05:21:13.879Z,5.44
2022-12-08T05:23:40.879Z,5.52
2022-12-08T05:26:07.716Z,5.56
2022-12-08T05:28:43.651Z,5.60
2022-12-08T05:31:14.730Z,5.51
2022-12-08T05:33:41.977Z,5.45
2022-12-08T05:36:09.899Z,5.45
2022-12-08T05:38:36.780Z,5.41
2022-12-08T05:41:04.050Z,5.40
2022-12-08T05:43:30.843Z,5.39
2022-12-08T05:45:57.737Z,5.42
2022-12-08T05:48:24.497Z,5.45
2022-12-08T05:50:51.722Z,5.45
2022-12-08T05:53:20.401Z,5.42
2022-12-08T05:55:48.152Z,5.45
2022-12-08T05:58:17.621Z,5.48
2022-12-08T06:00:44.864Z,5.46
2022-12-08T06:03:12.972Z,5.40
2022-12-08T06:05:42.104Z,5.34
2022-12-08T06:08:09.249Z,5.33
2022-12-08T06:10:37.657Z,5.31
2022-12-08T06:13:04.447Z,5.26
2022-12-08T06:15:31.258Z,5.31
2022-12-08T06:17:58.408Z,5.33
2022-12-08T06:20:25.098Z,5.39
2022-12-08T06:22:51.874Z,5.43
2022-12-08T06:25:18.645Z,5.45
2022-12-08T06:27:45.488Z,5.50
2022-12-08T06:30:12.630Z,5.51
2022-12-08T06:32:40.424Z,5.52
2022-12-08T06:35:07.723Z,5.59
2022-12-08T06:37:34.653Z,5.52
2022-12-08T06:40:01.660Z,5.43
2022-12-08T06:42:45.348Z,5.39
2022-12-08T06:45:13.682Z,5.46
2022-12-08T06:47:40.380Z,5.48
2022-12-08T06:50:09.440Z,5.46
2022-12-08T06:52:45.668Z,5.38
2022-12-08T06:55:35.551Z,5.28
2022-12-08T06:58:00.979Z,5.27
2022-12-08T07:00:27.786Z,5.31
2022-12-08T07:02:54.569Z,5.35
2022-12-08T07:05:21.513Z,5.35
2022-12-08T07:07:48.228Z,5.33
2022-12-08T07:10:15.277Z,5.28
2022-12-08T07:12:42.005Z,5.23
2022-12-08T07:15:09.448Z,5.26
2022-12-08T07:17:36.234Z,5.27
2022-12-08T07:20:04.069Z,5.27
2022-12-08T07:22:31.105Z,5.34
2022-12-08T07:24:57.795Z,5.41
2022-12-08T07:27:24.590Z,5.42
2022-12-08T07:29:51.318Z,5.48
2022-12-08T07:32:18.163Z,5.49
2022-12-08T07:34:47.104Z,5.44
2022-12-08T07:37:14.113Z,5.40
2022-12-08T07:39:40.903Z,5.32
2022-12-08T07:42:07.598Z,5.34
2022-12-08T07:44:34.316Z,5.40
2022-12-08T07:47:01.104Z,5.48
2022-12-08T07:49:27.893Z,5.56
2022-12-08T07:51:54.766Z,5.62
2022-12-08T07:54:21.583Z,5.67
2022-12-08T07:56:48.400Z,5.74
2022-12-08T07:59:15.304Z,5.76
2022-12-08T08:01:45.326Z,5.76
2022-12-08T08:04:12.586Z,5.81
2022-12-08T08:06:39.544Z,5.67
2022-12-08T08:09:07.293Z,5.61
2022-12-08T08:11:34.237Z,5.49
2022-12-08T08:14:04.273Z,5.37
2022-12-08T08:16:36.682Z,5.46
2022-12-08T08:19:05.398Z,5.52
2022-12-08T08:21:47.409Z,5.55
2022-12-08T08:24:14.227Z,5.60
2022-12-08T08:26:43.349Z,5.66
2022-12-08T08:29:10.152Z,5.63
2022-12-08T08:31:37.004Z,5.61
2022-12-08T08:34:06.676Z,5.67
2022-12-08T08:36:33.860Z,5.60
2022-12-08T08:39:00.742Z,5.56
2022-12-08T08:41:27.458Z,5.59
2022-12-08T08:43:55.372Z,5.63
2022-12-08T08:46:22.467Z,5.61
2022-12-08T08:48:49.343Z,5.53
2022-12-08T08:51:16.383Z,5.50
2022-12-08T08:53:46.890Z,5.58
2022-12-08T08:56:15.855Z,5.61
2022-12-08T08:58:43.240Z,5.67
2022-12-08T09:01:19.929Z,5.70
2022-12-08T09:03:47.144Z,5.73
2022-12-08T09:06:14.931Z,5.75
2022-12-08T09:08:43.013Z,5.77
2022-12-08T09:11:10.496Z,5.73
2022-12-08T09:13:37.621Z,5.69
2022-12-08T09:16:06.932Z,5.80
2022-12-08T09:18:34.417Z,5.65
2022-12-08T09:21:10.007Z,5.58
2022-12-08T09:23:37.164Z,5.67
2022-12-08T09:26:05.218Z,5.72
2022-12-08T09:28:32.664Z,5.86
2022-12-08T09:30:59.513Z,5.92
2022-12-08T09:33:26.382Z,5.93
2022-12-08T09:35:53.269Z,6.00
2022-12-08T09:38:19.983Z,6.02
2022-12-08T09:40:52.052Z,5.87
2022-12-08T09:43:18.735Z,5.83
2022-12-08T09:45:47.757Z,5.81
2022-12-08T09:48:23.492Z,5.85
2022-12-08T09:50:57.486Z,5.86
2022-12-08T09:53:58.874Z,5.87
2022-12-08T09:56:30.853Z,5.95
2022-12-08T09:59:08.196Z,5.99
2022-12-08T10:01:39.842Z,6.05
2022-12-08T10:04:34.530Z,6.04
2022-12-08T10:07:26.944Z,6.13
2022-12-08T10:09:54.009Z,6.21
2022-12-08T10:12:57.347Z,6.11
2022-12-08T10:16:04.685Z,5.97
2022-12-08T10:18:34.151Z,5.93
2022-12-08T10:21:18.864Z,5.87
2022-12-08T10:23:51.727Z,5.94
2022-12-08T10:26:20.869Z,5.91
2022-12-08T10:28:48.537Z,5.96
2022-12-08T10:31:16.879Z,5.96
2022-12-08T10:33:44.938Z,6.06
2022-12-08T10:36:12.406Z,6.16
2022-12-08T10:38:40.762Z,6.25
2022-12-08T10:41:10.738Z,6.24
2022-12-08T10:43:48.865Z,6.19
2022-12-08T10:46:26.826Z,6.22
2022-12-08T10:48:57.937Z,6.25
2022-12-08T10:51:30.137Z,6.31
2022-12-08T10:53:57.302Z,6.30
2022-12-08T10:56:33.003Z,6.32
2022-12-08T10:59:14.955Z,6.31
2022-12-08T11:01:45.293Z,6.29
2022-12-08T11:04:29.230Z,6.14
2022-12-08T11:06:56.146Z,6.05
2022-12-08T11:09:32.596Z,5.98
2022-12-08T11:12:14.500Z,5.94
2022-12-08T11:14:44.275Z,5.97
2022-12-08T11:17:23.370Z,5.96
2022-12-08T11:20:04.301Z,6.04
2022-12-08T11:22:41.151Z,6.17
2022-12-08T11:25:27.755Z,6.10
2022-12-08T11:27:58.996Z,6.16
2022-12-08T11:30:32.094Z,6.15
2022-12-08T11:33:23.754Z,6.18
2022-12-08T11:35:55.889Z,6.28
2022-12-08T11:38:25.027Z,6.40
2022-12-08T11:40:55.822Z,6.40
2022-12-08T11:43:31.979Z,6.40
2022-12-08T11:46:09.488Z,6.26
2022-12-08T11:48:39.516Z,6.28
2022-12-08T11:51:12.169Z,6.27
2022-12-08T11:53:46.806Z,6.16
2022-12-08T11:56:26.584Z,6.12
2022-12-08T11:59:09.658Z,5.93
2022-12-08T12:01:42.224Z,6.03
2022-12-08T12:04:21.396Z,6.07
2022-12-08T12:07:24.558Z,6.10
2022-12-08T12:10:20.640Z,6.07
2022-12-08T12:13:15.487Z,5.94
2022-12-08T12:15:54.184Z,6.04
2022-12-08T12:18:46.720Z,6.09
2022-12-08T12:21:26.522Z,6.08
2022-12-08T12:23:54.904Z,5.98
2022-12-08T12:26:28.354Z,5.98
2022-12-08T12:29:26.372Z,5.78
2022-12-08T12:32:00.631Z,6.01
2022-12-08T12:34:34.411Z,6.01
2022-12-08T12:37:04.142Z,6.03
2022-12-08T12:39:44.362Z,6.11
2022-12-08T12:42:34.105Z,5.94
2022-12-08T12:45:29.798Z,5.91
2022-12-08T12:47:57.170Z,6.00
2022-12-08T12:50:33.662Z,6.07
2022-12-08T12:53:19.147Z,6.02
2022-12-08T12:56:03.723Z,6.00
2022-12-08T12:58:30.614Z,6.00
2022-12-08T13:01:12.784Z,5.96
2022-12-08T13:04:03.370Z,5.97
2022-12-08T13:06:43.445Z,6.02
2022-12-08T13:09:37.552Z,5.96
2022-12-08T13:12:23.361Z,5.97
2022-12-08T13:14:51.815Z,6.00
2022-12-08T13:17:32.891Z,5.96
2022-12-08T13:20:02.777Z,5.99
2022-12-08T13:23:02.900Z,5.97
2022-12-08T13:26:11.280Z,6.01
2022-12-08T13:28:59.973Z,6.08
2022-12-08T13:31:50.622Z,5.83
2022-12-08T13:34:21.338Z,5.78
2022-12-08T13:37:06.620Z,5.66
2022-12-08T13:39:40.302Z,5.57
2022-12-08T13:42:13.065Z,5.54
2022-12-08T13:48:30.094Z,5.69
2022-12-08T13:57:18.741Z,5.70
2022-12-08T13:59:46.409Z,5.73
2022-12-08T14:02:17.644Z,5.71
2022-12-08T14:05:18.571Z,5.65
2022-12-08T14:07:36.529Z,5.63
2022-12-08T14:10:08.575Z,5.69
2022-12-08T14:12:35.911Z,5.70
2022-12-08T14:15:08.423Z,5.73
2022-12-08T14:17:35.499Z,5.71
2022-12-08T14:20:06.702Z,5.69
2022-12-08T14:22:35.545Z,5.66
2022-12-08T14:25:04.015Z,5.65
2022-12-08T14:27:35.251Z,5.64
2022-12-08T14:30:13.462Z,5.68
2022-12-08T14:32:50.841Z,5.79
2022-12-08T14:35:25.324Z,5.59
2022-12-08T14:37:55.962Z,5.58
2022-12-08T14:40:32.632Z,5.62
2022-12-08T14:43:12.407Z,5.70
2022-12-08T14:45:45.059Z,5.86
2022-12-08T14:48:28.205Z,5.89
2022-12-08T14:51:04.161Z,5.88
2022-12-08T14:53:37.985Z,5.79
2022-12-08T14:56:22.955Z,5.77
2022-12-08T14:59:09.554Z,5.87
2022-12-08T15:01:37.743Z,5.80
2022-12-08T15:04:12.870Z,5.78
2022-12-08T15:07:07.472Z,5.78
2022-12-08T15:09:46.261Z,5.77
2022-12-08T15:12:26.187Z,5.87
2022-12-08T15:15:01.240Z,5.85
2022-12-08T15:17:42.938Z,5.87
2022-12-08T15:20:48.837Z,5.81
2022-12-08T15:23:26.522Z,5.71
2022-12-08T15:25:54.728Z,5.67
2022-12-08T15:28:29.461Z,5.66
2022-12-08T15:30:58.320Z,5.56
2022-12-08T15:33:25.581Z,5.49
2022-12-08T15:35:53.550Z,5.52
2022-12-08T15:38:25.068Z,5.53
2022-12-08T15:40:53.262Z,5.48
2022-12-08T15:43:20.539Z,5.41
2022-12-08T15:45:57.867Z,5.45
2022-12-08T15:48:28.891Z,5.45
2022-12-08T15:50:56.496Z,5.41
2022-12-08T15:53:23.782Z,5.39
2022-12-08T15:56:25.690Z,5.37
2022-12-08T15:58:55.981Z,5.32
2022-12-08T16:01:23.773Z,5.31
2022-12-08T16:09:38.830Z,5.23
2022-12-08T16:12:25.827Z,5.25
2022-12-08T16:17:40.930Z,5.21
2022-12-08T16:20:15.588Z,5.27
2022-12-08T16:22:59.582Z,5.31
2022-12-08T16:25:52.769Z,5.32
2022-12-08T16:31:13.054Z,5.34
2022-12-08T16:33:41.285Z,5.37
2022-12-08T16:36:09.504Z,5.45
2022-12-08T16:38:37.441Z,5.43
2022-12-08T16:41:22.893Z,5.48
2022-12-08T16:43:51.178Z,5.49
2022-12-08T16:46:23.989Z,5.46
2022-12-08T16:48:50.818Z,5.43
2022-12-08T16:51:25.068Z,5.48
2022-12-08T16:53:54.916Z,5.54
2022-12-08T16:56:26.217Z,5.56
2022-12-08T16:58:57.300Z,5.61
2022-12-08T17:01:24.330Z,5.59
2022-12-08T17:04:14.411Z,5.53
2022-12-08T17:06:37.919Z,5.57
2022-12-08T17:09:04.734Z,5.66
2022-12-08T17:11:39.031Z,5.57
2022-12-08T17:14:09.211Z,5.55
2022-12-08T17:16:36.080Z,5.59
2022-12-08T17:19:02.973Z,5.62
2022-12-08T17:21:29.864Z,5.65
2022-12-08T17:23:56.728Z,5.65
2022-12-08T17:26:23.807Z,5.63
2022-12-08T17:29:00.394Z,5.54
2022-12-08T17:31:30.215Z,5.32
2022-12-08T17:34:00.333Z,5.32
2022-12-08T17:36:27.130Z,5.34
2022-12-08T17:38:54.264Z,5.14
2022-12-08T17:41:20.984Z,5.11
2022-12-08T17:43:47.748Z,5.03
2022-12-08T17:46:19.541Z,4.97
2022-12-08T17:48:46.439Z,5.14
2022-12-08T17:51:13.339Z,4.99
2022-12-08T17:53:40.900Z,4.93
2022-12-08T17:56:14.677Z,4.89
2022-12-08T17:58:41.480Z,4.98
2022-12-08T18:01:10.058Z,4.92
2022-12-08T18:03:37.623Z,5.02
2022-12-08T18:06:12.808Z,4.97
2022-12-08T18:08:40.401Z,5.01
2022-12-08T18:11:13.657Z,4.99
2022-12-08T18:13:40.705Z,4.73
2022-12-08T18:16:07.699Z,4.93
2022-12-08T18:18:34.646Z,4.93
2022-12-08T18:21:03.027Z,4.97
2022-12-08T18:23:29.889Z,5.03
2022-12-08T18:25:56.621Z,5.16
2022-12-08T18:28:24.070Z,5.13
2022-12-08T18:30:50.909Z,5.11
2022-12-08T18:33:17.761Z,5.06
2022-12-08T18:35:44.568Z,5.14
2022-12-08T18:38:12.397Z,5.10
2022-12-08T18:40:39.401Z,5.15
2022-12-08T18:43:06.130Z,5.28
2022-12-08T18:45:33.923Z,5.34
2022-12-08T18:48:00.789Z,5.36
2022-12-08T18:50:28.548Z,5.27
2022-12-08T18:52:55.467Z,5.21
2022-12-08T18:55:22.244Z,5.17
2022-12-08T18:57:49.879Z,5.09
2022-12-08T19:00:19.598Z,4.96
2022-12-08T19:02:46.928Z,4.95
2022-12-08T19:05:14.644Z,5.01
2022-12-08T19:07:42.779Z,4.98
2022-12-08T19:10:11.747Z,5.02
2022-12-08T19:12:39.805Z,5.01
2022-12-08T19:15:07.160Z,5.08
2022-12-08T19:17:34.064Z,5.06
2022-12-08T19:20:01.029Z,5.05
2022-12-08T19:22:28.249Z,5.03
2022-12-08T19:24:54.987Z,5.09
2022-12-08T19:27:21.788Z,5.19
2022-12-08T19:29:51.088Z,5.17
2022-12-08T19:32:17.917Z,4.99
2022-12-08T19:34:44.742Z,4.95
2022-12-08T19:37:12.933Z,5.00
2022-12-08T19:39:58.537Z,4.97
2022-12-08T19:42:43.929Z,5.01
2022-12-08T19:45:12.365Z,4.78
2022-12-08T19:47:40.558Z,4.79
2022-12-08T19:50:28.018Z,4.93
2022-12-08T19:52:56.127Z,4.86
2022-12-08T19:55:23.920Z,4.78
2022-12-08T19:57:51.985Z,4.76
2022-12-08T20:00:20.505Z,4.72
2022-12-08T20:02:48.526Z,4.66
2022-12-08T20:05:16.159Z,4.57
2022-12-08T20:07:43.475Z,4.63
2022-12-08T20:10:18.388Z,4.59
2022-12-08T20:12:45.203Z,4.66
2022-12-08T20:15:12.244Z,4.73
2022-12-08T20:17:39.617Z,4.77
2022-12-08T20:20:09.719Z,4.71
2022-12-08T20:22:37.972Z,4.72
2022-12-08T20:25:05.194Z,4.80
2022-12-08T20:27:33.150Z,4.84
2022-12-08T20:30:00.007Z,4.83
2022-12-08T20:32:26.925Z,4.75
2022-12-08T20:34:53.902Z,4.65
2022-12-08T20:37:20.741Z,4.64
2022-12-08T20:39:47.590Z,4.63
2022-12-08T20:42:14.587Z,4.72
2022-12-08T20:44:44.594Z,4.71
2022-12-08T20:47:13.018Z,4.73
2022-12-08T20:49:40.656Z,4.67
2022-12-08T20:52:07.988Z,4.63
2022-12-08T20:54:35.176Z,4.51
2022-12-08T20:57:02.369Z,4.51
2022-12-08T20:59:29.551Z,4.42
2022-12-08T21:01:57.083Z,4.36
2022-12-08T21:04:24.185Z,4.33
2022-12-08T21:06:52.529Z,4.40
2022-12-08T21:09:19.778Z,4.40
2022-12-08T21:11:46.878Z,4.47
2022-12-08T21:14:14.060Z,4.46
2022-12-08T21:16:40.868Z,4.40
2022-12-08T21:19:08.411Z,4.44
2022-12-08T21:21:35.289Z,4.51
2022-12-08T21:24:03.796Z,4.64
2022-12-08T21:26:31.209Z,4.71
2022-12-08T21:28:59.056Z,4.64
2022-12-08T21:31:27.039Z,4.57
2022-12-08T21:33:55.258Z,4.53
2022-12-08T21:36:22.644Z,4.47
2022-12-08T21:38:50.027Z,4.51
2022-12-08T21:41:40.138Z,4.59
2022-12-08T21:44:14.079Z,4.57
2022-12-08T21:46:41.878Z,4.53
2022-12-08T21:49:08.706Z,4.44
2022-12-08T21:51:37.964Z,4.35
2022-12-08T21:54:05.469Z,4.36
2022-12-08T21:56:32.404Z,4.41
2022-12-08T21:58:59.288Z,4.31
2022-12-08T22:01:26.317Z,4.21
2022-12-08T22:03:53.744Z,4.26
2022-12-08T22:06:20.710Z,4.33
2022-12-08T22:08:47.707Z,4.39
2022-12-08T22:11:14.607Z,4.57
2022-12-08T22:13:42.028Z,4.73
2022-12-08T22:16:11.450Z,4.71
2022-12-08T22:18:38.660Z,4.64
2022-12-08T22:21:10.335Z,4.62
2022-12-08T22:23:37.665Z,4.61
2022-12-08T22:26:04.894Z,4.61
2022-12-08T22:28:37.403Z,4.65
2022-12-08T22:31:20.881Z,4.62
2022-12-08T22:33:48.559Z,4.49
2022-12-08T22:36:24.549Z,4.79
2022-12-08T22:38:52.999Z,4.90
2022-12-08T22:41:21.197Z,4.90
2022-12-08T22:43:49.754Z,4.92
2022-12-08T22:46:19.462Z,4.92
2022-12-08T22:48:47.939Z,4.82
2022-12-08T22:51:15.439Z,4.74
2022-12-08T22:53:43.117Z,4.72
2022-12-08T22:56:11.793Z,4.77
2022-12-08T22:58:40.088Z,4.73
2022-12-08T23:01:07.241Z,4.67
2022-12-08T23:03:34.698Z,4.55
2022-12-08T23:06:02.260Z,4.52
2022-12-08T23:08:29.371Z,4.58
2022-12-08T23:10:56.457Z,4.49
2022-12-08T23:13:23.462Z,4.46
2022-12-08T23:15:53.019Z,4.58
2022-12-08T23:18:20.042Z,4.58
2022-12-08T23:20:47.765Z,4.67
2022-12-08T23:23:16.528Z,4.66
2022-12-08T23:25:43.823Z,4.66
2022-12-08T23:28:11.207Z,4.68
2022-12-08T23:30:40.350Z,4.65
2022-12-08T23:33:07.319Z,4.71
2022-12-08T23:35:34.978Z,4.69
2022-12-08T23:38:01.810Z,4.74
2022-12-08T23:40:28.832Z,4.83
2022-12-08T23:42:55.545Z,4.82
2022-12-08T23:45:22.334Z,4.74
2022-12-08T23:47:49.134Z,4.71
2022-12-08T23:50:16.068Z,4.67
2022-12-08T23:52:43.058Z,4.66
2022-12-08T23:55:11.182Z,4.63
2022-12-08T23:57:38.599Z,4.72
